Russellton, Pennsylvania
Current Conditions -  °F | °C
As of 9:55 AM on Thursday 30 Oct 2014 (Local Time) from KBTP Reporting Station
Overcast Overcast  
Wind Chill: 41°   Ceiling: 5000
Heat Index: 45°   Visibility: 10mi
Dew Point: 37°   Wind: 6mph
Humidity: 76%   Direction: 290°WNW
Pressure: 30.12"   Gusts: NA
Location:  40.61°N, 79.84°W
Report Text: KBTP 301355Z AUTO 29005KT 10SM OVC050 07/03 A3012 RMK AO1
Loading
Personal Weather Stations






























Interactive Weather Map
Tropical Storm Tracking
New forecast layout! Learn more

10-Day Weather Forecast

Advertisements
Track Severe Weather on mobile